sensor_id;sensor_type;location;lat;lon;timestamp;P1;durP1;ratioP1;P2;durP2;ratioP2
64932;SDS011;51446;53.850;10.662;2023-03-23T00:01:12;6.63;;;3.83;;
64932;SDS011;51446;53.850;10.662;2023-03-23T00:03:40;8.40;;;4.93;;
64932;SDS011;51446;53.850;10.662;2023-03-23T00:06:06;8.00;;;4.15;;
64932;SDS011;51446;53.850;10.662;2023-03-23T00:08:41;8.07;;;4.55;;
64932;SDS011;51446;53.850;10.662;2023-03-23T00:11:13;9.02;;;4.30;;
64932;SDS011;51446;53.850;10.662;2023-03-23T00:13:41;7.65;;;4.57;;
64932;SDS011;51446;53.850;10.662;2023-03-23T00:16:07;7.70;;;4.72;;
64932;SDS011;51446;53.850;10.662;2023-03-23T00:18:41;6.40;;;4.93;;
64932;SDS011;51446;53.850;10.662;2023-03-23T00:21:08;7.32;;;4.57;;
64932;SDS011;51446;53.850;10.662;2023-03-23T00:23:33;7.57;;;5.17;;
64932;SDS011;51446;53.850;10.662;2023-03-23T00:25:58;7.30;;;4.77;;
64932;SDS011;51446;53.850;10.662;2023-03-23T00:28:25;7.80;;;5.10;;
64932;SDS011;51446;53.850;10.662;2023-03-23T00:31:01;10.40;;;5.23;;
64932;SDS011;51446;53.850;10.662;2023-03-23T00:33:31;10.02;;;5.53;;
64932;SDS011;51446;53.850;10.662;2023-03-23T00:35:58;9.20;;;5.40;;
64932;SDS011;51446;53.850;10.662;2023-03-23T00:38:24;10.57;;;5.63;;
64932;SDS011;51446;53.850;10.662;2023-03-23T00:40:50;9.02;;;5.78;;
64932;SDS011;51446;53.850;10.662;2023-03-23T00:43:16;9.83;;;5.67;;
64932;SDS011;51446;53.850;10.662;2023-03-23T00:45:43;10.38;;;5.72;;
64932;SDS011;51446;53.850;10.662;2023-03-23T00:48:17;10.68;;;5.90;;
64932;SDS011;51446;53.850;10.662;2023-03-23T00:50:50;8.40;;;5.60;;
64932;SDS011;51446;53.850;10.662;2023-03-23T00:53:16;11.38;;;5.88;;
64932;SDS011;51446;53.850;10.662;2023-03-23T00:55:43;11.43;;;5.95;;
64932;SDS011;51446;53.850;10.662;2023-03-23T00:58:10;13.25;;;6.10;;
64932;SDS011;51446;53.850;10.662;2023-03-23T01:00:35;12.32;;;6.47;;
64932;SDS011;51446;53.850;10.662;2023-03-23T01:03:01;8.47;;;6.10;;
64932;SDS011;51446;53.850;10.662;2023-03-23T01:05:26;8.97;;;5.97;;
64932;SDS011;51446;53.850;10.662;2023-03-23T01:07:57;10.13;;;6.38;;
64932;SDS011;51446;53.850;10.662;2023-03-23T01:10:23;10.68;;;6.55;;
64932;SDS011;51446;53.850;10.662;2023-03-23T01:12:49;11.82;;;6.45;;
64932;SDS011;51446;53.850;10.662;2023-03-23T01:15:16;9.33;;;6.47;;
64932;SDS011;51446;53.850;10.662;2023-03-23T01:17:42;11.55;;;7.47;;
64932;SDS011;51446;53.850;10.662;2023-03-23T01:20:08;10.25;;;6.85;;
64932;SDS011;51446;53.850;10.662;2023-03-23T01:22:35;12.80;;;7.80;;
64932;SDS011;51446;53.850;10.662;2023-03-23T01:25:01;16.80;;;8.37;;
64932;SDS011;51446;53.850;10.662;2023-03-23T01:27:26;10.50;;;7.80;;
64932;SDS011;51446;53.850;10.662;2023-03-23T01:29:51;11.77;;;7.37;;
64932;SDS011;51446;53.850;10.662;2023-03-23T01:32:17;10.23;;;8.10;;
64932;SDS011;51446;53.850;10.662;2023-03-23T01:34:42;14.43;;;7.80;;
64932;SDS011;51446;53.850;10.662;2023-03-23T01:37:08;13.10;;;7.97;;
64932;SDS011;51446;53.850;10.662;2023-03-23T01:39:35;13.13;;;8.25;;
64932;SDS011;51446;53.850;10.662;2023-03-23T01:42:01;10.52;;;8.00;;
64932;SDS011;51446;53.850;10.662;2023-03-23T01:46:55;13.30;;;9.48;;
64932;SDS011;51446;53.850;10.662;2023-03-23T01:49:24;13.63;;;8.80;;
64932;SDS011;51446;53.850;10.662;2023-03-23T01:51:59;12.70;;;8.50;;
64932;SDS011;51446;53.850;10.662;2023-03-23T01:54:27;11.63;;;9.05;;
64932;SDS011;51446;53.850;10.662;2023-03-23T01:57:02;13.05;;;8.95;;
64932;SDS011;51446;53.850;10.662;2023-03-23T01:59:39;12.40;;;9.25;;
64932;SDS011;51446;53.850;10.662;2023-03-23T02:02:07;12.70;;;9.18;;
64932;SDS011;51446;53.850;10.662;2023-03-23T02:04:35;12.63;;;9.18;;
64932;SDS011;51446;53.850;10.662;2023-03-23T02:07:01;11.97;;;9.07;;
64932;SDS011;51446;53.850;10.662;2023-03-23T02:09:28;14.55;;;9.43;;
64932;SDS011;51446;53.850;10.662;2023-03-23T02:11:53;14.03;;;9.17;;
64932;SDS011;51446;53.850;10.662;2023-03-23T02:14:19;12.32;;;8.65;;
64932;SDS011;51446;53.850;10.662;2023-03-23T02:17:00;15.13;;;10.13;;
64932;SDS011;51446;53.850;10.662;2023-03-23T02:36:59;14.07;;;9.82;;
64932;SDS011;51446;53.850;10.662;2023-03-23T02:39:37;12.82;;;9.07;;
64932;SDS011;51446;53.850;10.662;2023-03-23T02:42:10;12.65;;;9.25;;
64932;SDS011;51446;53.850;10.662;2023-03-23T02:44:41;14.32;;;9.73;;
64932;SDS011;51446;53.850;10.662;2023-03-23T02:47:10;12.43;;;9.45;;
64932;SDS011;51446;53.850;10.662;2023-03-23T02:49:39;14.75;;;9.50;;
64932;SDS011;51446;53.850;10.662;2023-03-23T02:52:09;15.07;;;10.48;;
64932;SDS011;51446;53.850;10.662;2023-03-23T02:54:39;14.25;;;9.80;;
64932;SDS011;51446;53.850;10.662;2023-03-23T02:57:08;15.20;;;10.02;;
64932;SDS011;51446;53.850;10.662;2023-03-23T02:59:33;14.03;;;9.73;;
64932;SDS011;51446;53.850;10.662;2023-03-23T03:02:12;16.17;;;10.17;;
64932;SDS011;51446;53.850;10.662;2023-03-23T03:04:43;14.15;;;9.52;;
64932;SDS011;51446;53.850;10.662;2023-03-23T03:07:22;14.38;;;9.32;;
64932;SDS011;51446;53.850;10.662;2023-03-23T03:10:21;13.75;;;9.25;;
64932;SDS011;51446;53.850;10.662;2023-03-23T03:12:57;10.63;;;8.70;;
64932;SDS011;51446;53.850;10.662;2023-03-23T03:15:36;16.13;;;9.73;;
64932;SDS011;51446;53.850;10.662;2023-03-23T03:18:07;12.35;;;9.02;;
64932;SDS011;51446;53.850;10.662;2023-03-23T03:20:40;13.30;;;9.20;;
64932;SDS011;51446;53.850;10.662;2023-03-23T03:23:10;15.00;;;9.48;;
64932;SDS011;51446;53.850;10.662;2023-03-23T03:25:38;13.38;;;8.32;;
64932;SDS011;51446;53.850;10.662;2023-03-23T03:28:06;12.95;;;9.25;;
64932;SDS011;51446;53.850;10.662;2023-03-23T03:30:32;11.10;;;7.90;;
64932;SDS011;51446;53.850;10.662;2023-03-23T03:33:02;13.90;;;8.80;;
64932;SDS011;51446;53.850;10.662;2023-03-23T03:35:28;11.23;;;8.38;;
64932;SDS011;51446;53.850;10.662;2023-03-23T03:37:55;9.88;;;8.10;;
64932;SDS011;51446;53.850;10.662;2023-03-23T03:40:22;13.38;;;8.65;;
64932;SDS011;51446;53.850;10.662;2023-03-23T03:42:48;14.82;;;9.07;;
64932;SDS011;51446;53.850;10.662;2023-03-23T03:45:16;12.25;;;8.57;;
64932;SDS011;51446;53.850;10.662;2023-03-23T03:47:43;12.30;;;8.57;;
64932;SDS011;51446;53.850;10.662;2023-03-23T03:50:09;12.60;;;8.30;;
64932;SDS011;51446;53.850;10.662;2023-03-23T03:52:35;14.33;;;8.50;;
64932;SDS011;51446;53.850;10.662;2023-03-23T03:55:01;11.50;;;8.43;;
64932;SDS011;51446;53.850;10.662;2023-03-23T03:57:26;10.57;;;8.13;;
64932;SDS011;51446;53.850;10.662;2023-03-23T03:59:52;10.63;;;8.20;;
64932;SDS011;51446;53.850;10.662;2023-03-23T04:02:17;10.27;;;8.03;;
64932;SDS011;51446;53.850;10.662;2023-03-23T04:04:45;10.88;;;8.32;;
64932;SDS011;51446;53.850;10.662;2023-03-23T04:07:11;11.00;;;8.20;;
64932;SDS011;51446;53.850;10.662;2023-03-23T04:09:38;13.95;;;9.18;;
64932;SDS011;51446;53.850;10.662;2023-03-23T04:12:04;12.07;;;8.55;;
64932;SDS011;51446;53.850;10.662;2023-03-23T04:14:30;11.32;;;9.23;;
64932;SDS011;51446;53.850;10.662;2023-03-23T04:16:55;13.40;;;9.27;;
64932;SDS011;51446;53.850;10.662;2023-03-23T04:19:22;12.85;;;9.70;;
64932;SDS011;51446;53.850;10.662;2023-03-23T04:21:52;10.87;;;8.70;;
64932;SDS011;51446;53.850;10.662;2023-03-23T04:24:18;12.70;;;9.27;;
64932;SDS011;51446;53.850;10.662;2023-03-23T04:26:46;15.38;;;10.07;;
64932;SDS011;51446;53.850;10.662;2023-03-23T04:29:11;15.63;;;8.97;;
64932;SDS011;51446;53.850;10.662;2023-03-23T04:31:37;13.45;;;9.48;;
64932;SDS011;51446;53.850;10.662;2023-03-23T04:34:03;12.73;;;9.60;;
64932;SDS011;51446;53.850;10.662;2023-03-23T04:36:29;14.13;;;9.67;;
64932;SDS011;51446;53.850;10.662;2023-03-23T04:38:55;13.50;;;9.50;;
64932;SDS011;51446;53.850;10.662;2023-03-23T04:41:23;13.10;;;9.45;;
64932;SDS011;51446;53.850;10.662;2023-03-23T04:43:49;15.20;;;9.45;;
64932;SDS011;51446;53.850;10.662;2023-03-23T04:46:17;12.90;;;9.73;;
64932;SDS011;51446;53.850;10.662;2023-03-23T04:48:44;15.47;;;9.67;;
64932;SDS011;51446;53.850;10.662;2023-03-23T04:51:10;14.13;;;9.93;;
64932;SDS011;51446;53.850;10.662;2023-03-23T04:53:37;11.60;;;9.45;;
64932;SDS011;51446;53.850;10.662;2023-03-23T04:56:03;13.05;;;9.50;;
64932;SDS011;51446;53.850;10.662;2023-03-23T04:58:28;14.23;;;9.27;;
64932;SDS011;51446;53.850;10.662;2023-03-23T05:00:54;13.57;;;9.17;;
64932;SDS011;51446;53.850;10.662;2023-03-23T05:03:20;13.30;;;9.65;;
64932;SDS011;51446;53.850;10.662;2023-03-23T05:05:46;11.03;;;9.30;;
64932;SDS011;51446;53.850;10.662;2023-03-23T05:08:17;15.98;;;10.20;;
64932;SDS011;51446;53.850;10.662;2023-03-23T05:10:49;12.82;;;9.65;;
64932;SDS011;51446;53.850;10.662;2023-03-23T05:13:20;14.65;;;9.55;;
64932;SDS011;51446;53.850;10.662;2023-03-23T05:15:46;13.93;;;10.13;;
64932;SDS011;51446;53.850;10.662;2023-03-23T05:18:12;10.82;;;9.63;;
64932;SDS011;51446;53.850;10.662;2023-03-23T05:20:37;14.57;;;10.50;;
64932;SDS011;51446;53.850;10.662;2023-03-23T05:23:03;13.43;;;9.73;;
64932;SDS011;51446;53.850;10.662;2023-03-23T05:25:28;16.47;;;9.70;;
64932;SDS011;51446;53.850;10.662;2023-03-23T05:27:53;14.03;;;10.17;;
64932;SDS011;51446;53.850;10.662;2023-03-23T05:30:19;14.05;;;10.27;;
64932;SDS011;51446;53.850;10.662;2023-03-23T05:32:46;13.60;;;9.73;;
64932;SDS011;51446;53.850;10.662;2023-03-23T05:35:15;15.68;;;9.57;;
64932;SDS011;51446;53.850;10.662;2023-03-23T05:37:40;15.93;;;9.68;;
64932;SDS011;51446;53.850;10.662;2023-03-23T05:40:06;15.60;;;10.33;;
64932;SDS011;51446;53.850;10.662;2023-03-23T05:42:32;13.07;;;10.37;;
64932;SDS011;51446;53.850;10.662;2023-03-23T05:44:59;13.93;;;10.02;;
64932;SDS011;51446;53.850;10.662;2023-03-23T05:47:25;17.20;;;10.95;;
64932;SDS011;51446;53.850;10.662;2023-03-23T05:49:51;15.37;;;10.83;;
64932;SDS011;51446;53.850;10.662;2023-03-23T05:52:17;14.75;;;10.90;;
64932;SDS011;51446;53.850;10.662;2023-03-23T05:54:42;13.77;;;10.17;;
64932;SDS011;51446;53.850;10.662;2023-03-23T05:57:07;14.10;;;10.67;;
64932;SDS011;51446;53.850;10.662;2023-03-23T05:59:33;16.45;;;10.55;;
64932;SDS011;51446;53.850;10.662;2023-03-23T06:01:59;14.23;;;10.38;;
64932;SDS011;51446;53.850;10.662;2023-03-23T06:04:24;14.68;;;10.68;;
64932;SDS011;51446;53.850;10.662;2023-03-23T06:06:51;14.30;;;10.20;;
64932;SDS011;51446;53.850;10.662;2023-03-23T06:09:17;14.07;;;10.53;;
64932;SDS011;51446;53.850;10.662;2023-03-23T06:11:43;17.73;;;11.88;;
64932;SDS011;51446;53.850;10.662;2023-03-23T06:14:09;14.70;;;10.43;;
64932;SDS011;51446;53.850;10.662;2023-03-23T06:16:34;18.77;;;10.23;;
64932;SDS011;51446;53.850;10.662;2023-03-23T06:18:59;12.73;;;10.13;;
64932;SDS011;51446;53.850;10.662;2023-03-23T06:21:25;11.93;;;10.00;;
64932;SDS011;51446;53.850;10.662;2023-03-23T06:23:51;18.33;;;10.73;;
64932;SDS011;51446;53.850;10.662;2023-03-23T06:26:16;12.53;;;10.10;;
64932;SDS011;51446;53.850;10.662;2023-03-23T06:28:44;12.60;;;10.40;;
64932;SDS011;51446;53.850;10.662;2023-03-23T06:31:09;12.27;;;10.43;;
64932;SDS011;51446;53.850;10.662;2023-03-23T06:33:35;14.33;;;10.10;;
64932;SDS011;51446;53.850;10.662;2023-03-23T06:36:02;12.27;;;9.30;;
64932;SDS011;51446;53.850;10.662;2023-03-23T06:38:29;10.25;;;9.15;;
64932;SDS011;51446;53.850;10.662;2023-03-23T06:40:55;10.23;;;8.25;;
64932;SDS011;51446;53.850;10.662;2023-03-23T06:43:21;10.55;;;7.53;;
64932;SDS011;51446;53.850;10.662;2023-03-23T06:45:47;9.57;;;6.40;;
64932;SDS011;51446;53.850;10.662;2023-03-23T06:48:13;8.10;;;5.65;;
64932;SDS011;51446;53.850;10.662;2023-03-23T06:50:42;8.95;;;6.03;;
64932;SDS011;51446;53.850;10.662;2023-03-23T06:53:11;6.85;;;5.40;;
64932;SDS011;51446;53.850;10.662;2023-03-23T06:55:36;8.37;;;6.00;;
64932;SDS011;51446;53.850;10.662;2023-03-23T06:58:03;7.18;;;5.55;;
64932;SDS011;51446;53.850;10.662;2023-03-23T07:00:28;7.40;;;5.45;;
64932;SDS011;51446;53.850;10.662;2023-03-23T07:02:54;7.37;;;5.10;;
64932;SDS011;51446;53.850;10.662;2023-03-23T07:05:20;7.55;;;4.50;;
64932;SDS011;51446;53.850;10.662;2023-03-23T07:07:45;4.97;;;3.90;;
64932;SDS011;51446;53.850;10.662;2023-03-23T07:10:11;5.40;;;4.13;;
64932;SDS011;51446;53.850;10.662;2023-03-23T07:12:36;6.60;;;3.90;;
64932;SDS011;51446;53.850;10.662;2023-03-23T07:15:05;6.03;;;3.67;;
64932;SDS011;51446;53.850;10.662;2023-03-23T07:17:33;5.53;;;3.60;;
64932;SDS011;51446;53.850;10.662;2023-03-23T07:19:58;6.70;;;4.03;;
64932;SDS011;51446;53.850;10.662;2023-03-23T07:22:23;5.30;;;3.57;;
64932;SDS011;51446;53.850;10.662;2023-03-23T07:24:48;6.20;;;4.30;;
64932;SDS011;51446;53.850;10.662;2023-03-23T07:27:13;4.60;;;3.47;;
64932;SDS011;51446;53.850;10.662;2023-03-23T07:29:39;5.97;;;3.77;;
64932;SDS011;51446;53.850;10.662;2023-03-23T07:32:05;6.27;;;3.90;;
64932;SDS011;51446;53.850;10.662;2023-03-23T07:34:35;5.70;;;3.83;;
64932;SDS011;51446;53.850;10.662;2023-03-23T07:37:02;5.20;;;3.50;;
64932;SDS011;51446;53.850;10.662;2023-03-23T07:39:27;4.73;;;3.73;;
64932;SDS011;51446;53.850;10.662;2023-03-23T07:41:52;5.33;;;3.90;;
64932;SDS011;51446;53.850;10.662;2023-03-23T07:44:17;5.13;;;3.57;;
64932;SDS011;51446;53.850;10.662;2023-03-23T07:46:43;4.90;;;3.60;;
64932;SDS011;51446;53.850;10.662;2023-03-23T07:49:08;5.63;;;3.60;;
64932;SDS011;51446;53.850;10.662;2023-03-23T07:51:34;5.82;;;3.88;;
64932;SDS011;51446;53.850;10.662;2023-03-23T07:53:59;3.87;;;3.47;;
64932;SDS011;51446;53.850;10.662;2023-03-23T07:56:28;4.68;;;3.47;;
64932;SDS011;51446;53.850;10.662;2023-03-23T07:58:54;4.27;;;3.23;;
64932;SDS011;51446;53.850;10.662;2023-03-23T08:01:19;3.90;;;3.50;;
64932;SDS011;51446;53.850;10.662;2023-03-23T08:03:45;4.72;;;3.42;;
64932;SDS011;51446;53.850;10.662;2023-03-23T08:06:10;5.77;;;3.50;;
64932;SDS011;51446;53.850;10.662;2023-03-23T08:08:35;3.83;;;3.47;;
64932;SDS011;51446;53.850;10.662;2023-03-23T08:11:02;7.15;;;3.63;;
64932;SDS011;51446;53.850;10.662;2023-03-23T08:13:27;4.73;;;3.67;;
64932;SDS011;51446;53.850;10.662;2023-03-23T08:15:53;6.73;;;3.90;;
64932;SDS011;51446;53.850;10.662;2023-03-23T08:18:18;6.10;;;3.97;;
64932;SDS011;51446;53.850;10.662;2023-03-23T08:20:43;6.33;;;3.73;;
64932;SDS011;51446;53.850;10.662;2023-03-23T08:23:13;5.03;;;3.50;;
64932;SDS011;51446;53.850;10.662;2023-03-23T08:25:39;5.60;;;4.22;;
64932;SDS011;51446;53.850;10.662;2023-03-23T08:28:06;5.13;;;3.65;;
64932;SDS011;51446;53.850;10.662;2023-03-23T08:30:31;5.63;;;3.73;;
64932;SDS011;51446;53.850;10.662;2023-03-23T08:32:59;5.97;;;3.63;;
64932;SDS011;51446;53.850;10.662;2023-03-23T08:35:25;5.47;;;3.03;;
64932;SDS011;51446;53.850;10.662;2023-03-23T08:37:51;6.93;;;2.95;;
64932;SDS011;51446;53.850;10.662;2023-03-23T08:40:18;6.97;;;2.97;;
64932;SDS011;51446;53.850;10.662;2023-03-23T08:42:45;4.25;;;2.50;;
64932;SDS011;51446;53.850;10.662;2023-03-23T08:45:13;3.35;;;2.65;;
64932;SDS011;51446;53.850;10.662;2023-03-23T08:47:41;5.30;;;2.78;;
64932;SDS011;51446;53.850;10.662;2023-03-23T08:50:08;8.65;;;2.45;;
64932;SDS011;51446;53.850;10.662;2023-03-23T08:52:36;4.35;;;2.30;;
64932;SDS011;51446;53.850;10.662;2023-03-23T08:55:02;6.07;;;2.40;;
64932;SDS011;51446;53.850;10.662;2023-03-23T08:57:28;8.70;;;2.17;;
64932;SDS011;51446;53.850;10.662;2023-03-23T08:59:54;5.55;;;2.08;;
64932;SDS011;51446;53.850;10.662;2023-03-23T09:02:22;8.82;;;1.85;;
64932;SDS011;51446;53.850;10.662;2023-03-23T09:04:48;5.22;;;2.10;;
64932;SDS011;51446;53.850;10.662;2023-03-23T09:07:14;5.00;;;1.60;;
64932;SDS011;51446;53.850;10.662;2023-03-23T09:09:39;4.60;;;1.70;;
64932;SDS011;51446;53.850;10.662;2023-03-23T09:12:06;4.50;;;1.70;;
64932;SDS011;51446;53.850;10.662;2023-03-23T09:14:33;3.25;;;2.03;;
64932;SDS011;51446;53.850;10.662;2023-03-23T09:16:58;2.47;;;1.80;;
64932;SDS011;51446;53.850;10.662;2023-03-23T09:19:23;9.40;;;2.83;;
64932;SDS011;51446;53.850;10.662;2023-03-23T09:21:49;3.67;;;2.03;;
64932;SDS011;51446;53.850;10.662;2023-03-23T09:24:15;1.50;;;1.40;;
64932;SDS011;51446;53.850;10.662;2023-03-23T09:26:40;3.10;;;1.50;;
64932;SDS011;51446;53.850;10.662;2023-03-23T09:29:05;2.50;;;1.45;;
64932;SDS011;51446;53.850;10.662;2023-03-23T09:31:31;1.42;;;1.30;;
64932;SDS011;51446;53.850;10.662;2023-03-23T09:33:57;3.05;;;1.20;;
64932;SDS011;51446;53.850;10.662;2023-03-23T09:36:24;2.28;;;1.30;;
64932;SDS011;51446;53.850;10.662;2023-03-23T09:38:50;3.67;;;1.25;;
64932;SDS011;51446;53.850;10.662;2023-03-23T09:47:20;3.78;;;1.80;;
64932;SDS011;51446;53.850;10.662;2023-03-23T09:50:04;3.55;;;1.38;;
64932;SDS011;51446;53.850;10.662;2023-03-23T09:52:46;3.85;;;1.63;;
64932;SDS011;51446;53.850;10.662;2023-03-23T09:55:17;3.70;;;1.38;;
64932;SDS011;51446;53.850;10.662;2023-03-23T09:57:49;3.38;;;1.40;;
64932;SDS011;51446;53.850;10.662;2023-03-23T10:00:40;4.25;;;1.70;;
64932;SDS011;51446;53.850;10.662;2023-03-23T10:03:19;4.57;;;1.55;;
64932;SDS011;51446;53.850;10.662;2023-03-23T10:05:51;4.32;;;1.50;;
64932;SDS011;51446;53.850;10.662;2023-03-23T10:08:24;4.95;;;1.80;;
64932;SDS011;51446;53.850;10.662;2023-03-23T10:11:03;4.72;;;1.80;;
64932;SDS011;51446;53.850;10.662;2023-03-23T10:16:03;5.97;;;1.95;;
64932;SDS011;51446;53.850;10.662;2023-03-23T10:18:37;7.47;;;2.10;;
64932;SDS011;51446;53.850;10.662;2023-03-23T10:21:06;7.93;;;2.93;;
64932;SDS011;51446;53.850;10.662;2023-03-23T10:31:41;6.13;;;1.70;;
64932;SDS011;51446;53.850;10.662;2023-03-23T10:34:11;6.77;;;1.90;;
64932;SDS011;51446;53.850;10.662;2023-03-23T10:37:17;7.80;;;1.67;;
64932;SDS011;51446;53.850;10.662;2023-03-23T10:39:55;6.38;;;1.73;;
64932;SDS011;51446;53.850;10.662;2023-03-23T10:42:30;7.32;;;1.70;;
64932;SDS011;51446;53.850;10.662;2023-03-23T10:44:59;8.48;;;1.50;;
64932;SDS011;51446;53.850;10.662;2023-03-23T10:47:25;6.77;;;2.00;;
64932;SDS011;51446;53.850;10.662;2023-03-23T10:49:59;5.90;;;1.63;;
64932;SDS011;51446;53.850;10.662;2023-03-23T10:52:35;8.63;;;2.17;;
64932;SDS011;51446;53.850;10.662;2023-03-23T10:55:04;4.75;;;1.52;;
64932;SDS011;51446;53.850;10.662;2023-03-23T10:57:34;9.48;;;2.05;;
64932;SDS011;51446;53.850;10.662;2023-03-23T11:02:40;9.43;;;2.30;;
64932;SDS011;51446;53.850;10.662;2023-03-23T11:07:48;5.75;;;1.95;;
64932;SDS011;51446;53.850;10.662;2023-03-23T11:11:19;7.95;;;1.75;;
64932;SDS011;51446;53.850;10.662;2023-03-23T11:13:27;8.57;;;1.90;;
64932;SDS011;51446;53.850;10.662;2023-03-23T11:15:55;7.35;;;1.83;;
64932;SDS011;51446;53.850;10.662;2023-03-23T11:21:07;9.45;;;2.03;;
64932;SDS011;51446;53.850;10.662;2023-03-23T11:23:37;8.13;;;2.08;;
64932;SDS011;51446;53.850;10.662;2023-03-23T11:29:12;6.43;;;1.95;;
64932;SDS011;51446;53.850;10.662;2023-03-23T11:31:44;12.50;;;2.40;;
64932;SDS011;51446;53.850;10.662;2023-03-23T11:34:16;7.22;;;1.80;;
64932;SDS011;51446;53.850;10.662;2023-03-23T11:37:01;9.40;;;1.85;;
64932;SDS011;51446;53.850;10.662;2023-03-23T11:42:00;9.68;;;1.90;;
64932;SDS011;51446;53.850;10.662;2023-03-23T11:44:33;7.60;;;2.33;;
64932;SDS011;51446;53.850;10.662;2023-03-23T11:47:16;11.20;;;2.10;;
64932;SDS011;51446;53.850;10.662;2023-03-23T11:58:11;7.10;;;2.17;;
64932;SDS011;51446;53.850;10.662;2023-03-23T12:00:40;9.43;;;2.10;;
64932;SDS011;51446;53.850;10.662;2023-03-23T12:09:11;11.55;;;2.05;;
64932;SDS011;51446;53.850;10.662;2023-03-23T12:20:13;7.18;;;2.28;;
64932;SDS011;51446;53.850;10.662;2023-03-23T12:22:53;8.68;;;1.90;;
64932;SDS011;51446;53.850;10.662;2023-03-23T12:36:30;8.43;;;2.05;;
64932;SDS011;51446;53.850;10.662;2023-03-23T12:44:48;15.48;;;2.92;;
64932;SDS011;51446;53.850;10.662;2023-03-23T12:47:37;9.27;;;2.42;;
64932;SDS011;51446;53.850;10.662;2023-03-23T12:52:50;12.80;;;2.30;;
64932;SDS011;51446;53.850;10.662;2023-03-23T13:00:46;8.07;;;2.70;;
64932;SDS011;51446;53.850;10.662;2023-03-23T13:03:22;10.07;;;2.47;;
64932;SDS011;51446;53.850;10.662;2023-03-23T13:05:54;11.37;;;2.93;;
64932;SDS011;51446;53.850;10.662;2023-03-23T13:08:31;8.85;;;2.58;;
64932;SDS011;51446;53.850;10.662;2023-03-23T13:11:02;14.20;;;3.17;;
64932;SDS011;51446;53.850;10.662;2023-03-23T13:13:49;18.02;;;4.00;;
64932;SDS011;51446;53.850;10.662;2023-03-23T13:16:20;10.73;;;2.85;;
64932;SDS011;51446;53.850;10.662;2023-03-23T13:21:45;8.45;;;2.60;;
64932;SDS011;51446;53.850;10.662;2023-03-23T13:24:19;11.23;;;3.03;;
64932;SDS011;51446;53.850;10.662;2023-03-23T13:26:48;8.10;;;2.60;;
64932;SDS011;51446;53.850;10.662;2023-03-23T13:29:16;11.77;;;2.58;;
64932;SDS011;51446;53.850;10.662;2023-03-23T13:31:44;8.80;;;2.90;;
64932;SDS011;51446;53.850;10.662;2023-03-23T13:34:29;11.80;;;2.90;;
64932;SDS011;51446;53.850;10.662;2023-03-23T13:37:00;10.05;;;2.60;;
64932;SDS011;51446;53.850;10.662;2023-03-23T13:39:32;11.93;;;3.40;;
64932;SDS011;51446;53.850;10.662;2023-03-23T13:44:54;6.87;;;2.00;;
64932;SDS011;51446;53.850;10.662;2023-03-23T13:47:36;7.85;;;2.65;;
64932;SDS011;51446;53.850;10.662;2023-03-23T13:50:09;11.80;;;3.20;;
64932;SDS011;51446;53.850;10.662;2023-03-23T13:57:54;9.37;;;3.07;;
64932;SDS011;51446;53.850;10.662;2023-03-23T14:05:41;8.77;;;2.83;;
64932;SDS011;51446;53.850;10.662;2023-03-23T14:08:14;8.77;;;3.40;;
64932;SDS011;51446;53.850;10.662;2023-03-23T14:10:52;11.63;;;3.33;;
64932;SDS011;51446;53.850;10.662;2023-03-23T14:13:25;11.13;;;3.40;;
64932;SDS011;51446;53.850;10.662;2023-03-23T14:18:25;7.45;;;3.33;;
64932;SDS011;51446;53.850;10.662;2023-03-23T14:20:55;8.98;;;3.17;;
64932;SDS011;51446;53.850;10.662;2023-03-23T14:23:21;11.90;;;3.20;;
64932;SDS011;51446;53.850;10.662;2023-03-23T14:25:54;8.85;;;3.20;;
64932;SDS011;51446;53.850;10.662;2023-03-23T14:28:21;6.43;;;2.55;;
64932;SDS011;51446;53.850;10.662;2023-03-23T14:30:48;5.45;;;2.90;;
64932;SDS011;51446;53.850;10.662;2023-03-23T14:33:18;9.85;;;2.72;;
64932;SDS011;51446;53.850;10.662;2023-03-23T14:35:45;12.20;;;5.90;;
64932;SDS011;51446;53.850;10.662;2023-03-23T14:38:20;5.95;;;3.65;;
64932;SDS011;51446;53.850;10.662;2023-03-23T14:40:49;4.78;;;2.58;;
64932;SDS011;51446;53.850;10.662;2023-03-23T14:43:16;4.43;;;1.43;;
64932;SDS011;51446;53.850;10.662;2023-03-23T14:45:45;4.50;;;1.42;;
64932;SDS011;51446;53.850;10.662;2023-03-23T14:48:15;3.10;;;1.70;;
64932;SDS011;51446;53.850;10.662;2023-03-23T14:50:42;4.25;;;1.77;;
64932;SDS011;51446;53.850;10.662;2023-03-23T14:56:02;2.75;;;1.38;;
64932;SDS011;51446;53.850;10.662;2023-03-23T14:58:31;4.22;;;1.20;;
64932;SDS011;51446;53.850;10.662;2023-03-23T15:01:07;3.17;;;1.40;;
64932;SDS011;51446;53.850;10.662;2023-03-23T15:03:37;2.38;;;1.20;;
64932;SDS011;51446;53.850;10.662;2023-03-23T15:06:11;3.75;;;1.67;;
64932;SDS011;51446;53.850;10.662;2023-03-23T15:08:39;3.38;;;1.63;;
64932;SDS011;51446;53.850;10.662;2023-03-23T15:13:41;1.35;;;1.25;;
64932;SDS011;51446;53.850;10.662;2023-03-23T15:16:19;5.07;;;1.30;;
64932;SDS011;51446;53.850;10.662;2023-03-23T15:18:58;1.70;;;1.48;;
64932;SDS011;51446;53.850;10.662;2023-03-23T15:21:29;2.83;;;1.20;;
64932;SDS011;51446;53.850;10.662;2023-03-23T15:24:00;3.88;;;1.30;;
64932;SDS011;51446;53.850;10.662;2023-03-23T15:26:28;2.80;;;1.30;;
64932;SDS011;51446;53.850;10.662;2023-03-23T15:29:11;4.50;;;1.30;;
64932;SDS011;51446;53.850;10.662;2023-03-23T15:31:43;4.82;;;2.33;;
64932;SDS011;51446;53.850;10.662;2023-03-23T15:34:29;3.22;;;1.27;;
64932;SDS011;51446;53.850;10.662;2023-03-23T15:36:59;5.15;;;1.10;;
64932;SDS011;51446;53.850;10.662;2023-03-23T15:39:27;2.70;;;1.40;;
64932;SDS011;51446;53.850;10.662;2023-03-23T15:41:53;3.58;;;1.40;;
64932;SDS011;51446;53.850;10.662;2023-03-23T15:44:21;2.13;;;1.33;;
64932;SDS011;51446;53.850;10.662;2023-03-23T15:47:13;3.40;;;1.30;;
64932;SDS011;51446;53.850;10.662;2023-03-23T15:49:44;4.68;;;1.23;;
64932;SDS011;51446;53.850;10.662;2023-03-23T15:52:10;2.42;;;1.40;;
64932;SDS011;51446;53.850;10.662;2023-03-23T15:54:37;4.68;;;1.52;;
64932;SDS011;51446;53.850;10.662;2023-03-23T15:57:03;2.13;;;1.77;;
64932;SDS011;51446;53.850;10.662;2023-03-23T15:59:28;6.57;;;1.60;;
64932;SDS011;51446;53.850;10.662;2023-03-23T16:01:53;4.53;;;2.80;;
64932;SDS011;51446;53.850;10.662;2023-03-23T16:04:19;2.92;;;1.65;;
64932;SDS011;51446;53.850;10.662;2023-03-23T16:06:45;3.92;;;1.75;;
64932;SDS011;51446;53.850;10.662;2023-03-23T16:09:12;3.38;;;1.60;;
64932;SDS011;51446;53.850;10.662;2023-03-23T16:11:39;4.05;;;1.63;;
64932;SDS011;51446;53.850;10.662;2023-03-23T16:14:04;3.67;;;1.80;;
64932;SDS011;51446;53.850;10.662;2023-03-23T16:16:31;3.30;;;1.90;;
64932;SDS011;51446;53.850;10.662;2023-03-23T16:18:59;3.57;;;1.50;;
64932;SDS011;51446;53.850;10.662;2023-03-23T16:21:25;3.93;;;1.70;;
64932;SDS011;51446;53.850;10.662;2023-03-23T16:23:50;2.95;;;1.75;;
64932;SDS011;51446;53.850;10.662;2023-03-23T16:26:15;7.00;;;2.20;;
64932;SDS011;51446;53.850;10.662;2023-03-23T16:28:41;4.57;;;1.93;;
64932;SDS011;51446;53.850;10.662;2023-03-23T16:31:07;4.35;;;1.80;;
64932;SDS011;51446;53.850;10.662;2023-03-23T16:33:32;6.73;;;2.30;;
64932;SDS011;51446;53.850;10.662;2023-03-23T16:35:58;5.80;;;1.80;;
64932;SDS011;51446;53.850;10.662;2023-03-23T16:38:23;7.10;;;2.53;;
64932;SDS011;51446;53.850;10.662;2023-03-23T16:40:49;5.03;;;2.20;;